EDFH/HHN METAR and TAF weather

Enter ICAO airport designator
Station Type Date Time Source
EDFH METAR 2018/01/19 17:20 UTC NOAA

EDFH 191720Z 24007KT CAVOK 00/M01 Q1009


Station Type Date Time Source
EDFH Decoded METAR 2018/01/19 17:20 UTC NOAA

Hahn, Germany (EDFH) 49-57N 007-16E 498M
Jan 19, 2018 - 12:20 PM EST / 2018.01.19 1720 UTC
Wind: from the WSW (240 degrees) at 8 MPH (7 KT):0
Visibility: greater than 7 mile(s):0
Temperature: 32 F (0 C)
Windchill: 24 F (-4 C):1
Dew Point: 30 F (-1 C)
Relative Humidity: 92%
Pressure (altimeter): 29.80 in. Hg (1009 hPa)
ob: EDFH 191720Z 24007KT CAVOK 00/M01 Q1009
cycle: 17

Station Type Date Time Source
EDFH TAF 2018/01/19 18:27 UTC NOAA

TAF EDFH 191700Z 1918/2018 26008KT 9999 BKN025 PROB40
TEMPO 1918/2009 3000 SHSN BKN005 SCT010CB
BECMG 2009/2012 19012KT 4000 -SN BKN008
TEMPO 2011/2018 1200 SN VV003


Example: see airport list